Wetterdaten: Woche 30.09.19 - 06.10.19 (KW40)
Datum Zeit Temp. Aussen Temp. o. S. +5cm Feuchte Auss Luftdruck Regen Sonnenschein Regendauer Solar Windben Empfang
30.09.2019 00:00 14,8 C 13,4 C 18,3 C 98 % 997,1 hPa 0,0 l/m 0,00 h 0,00 h 0 W/m 24,1 km/h (4 Bft) 99,34 %
30.09.2019 01:00 14,7 C 13,5 C 18,3 C 98 % 998,1 hPa 0,4 l/m 0,00 h 0,30 h 0 W/m 21,2 km/h (4 Bft) 95,22 %
30.09.2019 02:00 14,6 C 13,3 C 18,3 C 98 % 999,8 hPa 0,6 l/m 0,00 h 0,47 h 0 W/m 19,8 km/h (4 Bft) 97,58 %
30.09.2019 03:00 13,9 C 12,7 C 18,3 C 98 % 1002,0 hPa 0,2 l/m 0,00 h 0,17 h 0 W/m 21,7 km/h (4 Bft) 98,58 %
30.09.2019 04:00 13,3 C 12,2 C 18,3 C 97 % 1003,5 hPa 0,0 l/m 0,00 h 0,43 h 0 W/m 20,0 km/h (4 Bft) 95,12 %
30.09.2019 05:00 13,1 C 12,0 C 18,3 C 96 % 1004,8 hPa 0,0 l/m 0,00 h 0,33 h 0 W/m 20,1 km/h (4 Bft) 97,37 %
30.09.2019 06:00 12,8 C 11,6 C 18,3 C 96 % 1005,8 hPa 0,0 l/m 0,00 h 0,30 h 0 W/m 19,1 km/h (3 Bft) 97,86 %
30.09.2019 07:00 12,6 C 11,3 C 18,3 C 96 % 1007,0 hPa 0,4 l/m 0,00 h 0,33 h 11 W/m 18,9 km/h (3 Bft) 98,50 %
30.09.2019 08:00 12,5 C 11,2 C 18,3 C 97 % 1008,5 hPa 1,6 l/m 0,00 h 0,73 h 14 W/m 13,4 km/h (3 Bft) 95,44 %
30.09.2019 09:00 12,5 C 11,6 C 18,3 C 97 % 1009,5 hPa 0,2 l/m 0,00 h 0,20 h 37 W/m 14,8 km/h (3 Bft) 98,03 %
30.09.2019 10:00 13,5 C 13,9 C 18,3 C 96 % 1010,4 hPa 0,0 l/m 0,37 h 0,00 h 175 W/m 16,9 km/h (3 Bft) 97,36 %
30.09.2019 11:00 14,8 C 16,1 C 18,3 C 90 % 1011,2 hPa 0,0 l/m 0,43 h 0,00 h 252 W/m 16,5 km/h (3 Bft) 94,64 %
30.09.2019 12:00 15,5 C 16,2 C 18,3 C 85 % 1011,9 hPa 0,0 l/m 0,13 h 0,00 h 218 W/m 18,2 km/h (3 Bft) 98,98 %
30.09.2019 13:00 17,1 C 20,7 C 18,3 C 80 % 1012,1 hPa 0,0 l/m 0,87 h 0,00 h 489 W/m 17,0 km/h (3 Bft) 97,79 %
30.09.2019 14:00 17,2 C 18,2 C 18,3 C 76 % 1012,3 hPa 0,0 l/m 0,60 h 0,00 h 297 W/m 16,6 km/h (3 Bft) 97,79 %
30.09.2019 15:00 18,0 C 20,8 C 18,3 C 74 % 1012,3 hPa 0,0 l/m 0,97 h 0,00 h 461 W/m 15,1 km/h (3 Bft) 97,65 %
30.09.2019 16:00 17,7 C 18,2 C 18,3 C 74 % 1012,3 hPa 0,0 l/m 0,23 h 0,00 h 154 W/m 11,3 km/h (2 Bft) 95,95 %
30.09.2019 17:00 16,5 C 15,8 C 18,3 C 78 % 1012,2 hPa 0,0 l/m 0,00 h 0,00 h 55 W/m 10,1 km/h (2 Bft) 99,43 %
30.09.2019 18:00 16,1 C 15,4 C 18,3 C 80 % 1012,1 hPa 0,0 l/m 0,00 h 0,00 h 30 W/m 6,2 km/h (2 Bft) 97,17 %
30.09.2019 19:00 15,7 C 14,5 C 18,3 C 81 % 1011,9 hPa 0,0 l/m 0,00 h 0,00 h 8 W/m 4,1 km/h (1 Bft) 96,23 %
30.09.2019 20:00 15,2 C 14,4 C 18,3 C 83 % 1011,7 hPa 0,0 l/m 0,00 h 0,00 h 0 W/m 5,5 km/h (1 Bft) 98,36 %
30.09.2019 21:00 15,0 C 14,3 C 18,3 C 85 % 1011,4 hPa 0,0 l/m 0,00 h 0,00 h 0 W/m 8,6 km/h (2 Bft) 96,08 %
30.09.2019 22:00 15,1 C 14,4 C 18,3 C 84 % 1010,9 hPa 0,0 l/m 0,00 h 0,00 h 0 W/m 16,5 km/h (3 Bft) 98,86 %
30.09.2019 23:00 15,0 C 13,9 C 18,3 C 87 % 1010,3 hPa 0,0 l/m 0,00 h 0,00 h 0 W/m 13,6 km/h (3 Bft) 97,72 %
01.10.2019 00:00 14,8 C 13,3 C 18,3 C 89 % 1009,6 hPa 0,0 l/m 0,00 h 0,43 h 0 W/m 10,3 km/h (2 Bft) 95,91 %
01.10.2019 01:00 14,3 C 13,3 C 18,3 C 90 % 1008,5 hPa 0,2 l/m 0,00 h 0,20 h 0 W/m 12,2 km/h (2 Bft) 99,36 %
01.10.2019 02:00 14,1 C 11,9 C 18,3 C 92 % 1007,4 hPa 1,8 l/m 0,00 h 0,83 h 0 W/m 13,7 km/h (3 Bft) 97,72 %
01.10.2019 03:00 13,4 C 11,9 C 18,3 C 95 % 1005,9 hPa 1,2 l/m 0,00 h 0,53 h 0 W/m 16,7 km/h (3 Bft) 95,02 %
01.10.2019 04:00 13,3 C 12,3 C 18,3 C 98 % 1004,5 hPa 0,2 l/m 0,00 h 0,13 h 0 W/m 18,0 km/h (3 Bft) 99,64 %
01.10.2019 05:00 13,7 C 12,8 C 18,3 C 98 % 1003,6 hPa 0,6 l/m 0,00 h 0,30 h 0 W/m 16,6 km/h (3 Bft) 97,93 %
01.10.2019 06:00 14,3 C 13,4 C 18,3 C 99 % 1002,8 hPa 0,0 l/m 0,00 h 0,00 h 0 W/m 22,7 km/h (4 Bft) 95,55 %
01.10.2019 07:00 14,7 C 13,9 C 18,3 C 99 % 1002,1 hPa 0,0 l/m 0,00 h 0,00 h 6 W/m 23,5 km/h (4 Bft) 99,43 %
01.10.2019 08:00 15,0 C 14,8 C 18,3 C 99 % 1001,6 hPa 0,0 l/m 0,00 h 0,00 h 31 W/m 24,6 km/h (4 Bft) 97,72 %
01.10.2019 09:00 15,7 C 14,6 C 18,3 C 97 % 1001,6 hPa 5,8 l/m 0,00 h 0,73 h 29 W/m 22,3 km/h (4 Bft) 95,80 %
01.10.2019 10:00 15,4 C 14,2 C 18,3 C 97 % 1002,1 hPa 0,4 l/m 0,00 h 0,80 h 75 W/m 18,5 km/h (3 Bft) 97,79 %
01.10.2019 11:00 15,2 C 14,2 C 18,3 C 97 % 1002,2 hPa 0,0 l/m 0,00 h 0,50 h 91 W/m 18,4 km/h (3 Bft) 97,94 %
01.10.2019 12:00 15,8 C 15,5 C 18,3 C 98 % 1001,9 hPa 0,2 l/m 0,07 h 0,40 h 182 W/m 13,9 km/h (3 Bft) 96,42 %
01.10.2019 13:00 16,5 C 16,2 C 18,3 C 97 % 1001,7 hPa 0,0 l/m 0,10 h 0,30 h 198 W/m 16,3 km/h (3 Bft) 96,51 %
01.10.2019 14:00 16,5 C 15,5 C 18,3 C 93 % 1001,4 hPa 0,0 l/m 0,00 h 0,23 h 115 W/m 18,3 km/h (3 Bft) 99,64 %
01.10.2019 15:00 16,5 C 16,5 C 18,3 C 92 % 1001,1 hPa 0,0 l/m 0,00 h 0,00 h 130 W/m 20,2 km/h (4 Bft) 96,30 %
01.10.2019 16:00 16,7 C 16,8 C 18,3 C 92 % 1000,7 hPa 0,0 l/m 0,00 h 0,00 h 126 W/m 16,1 km/h (3 Bft) 96,72 %
01.10.2019 17:00 17,0 C 16,7 C 18,3 C 90 % 1000,3 hPa 0,0 l/m 0,00 h 0,00 h 71 W/m 15,1 km/h (3 Bft) 99,43 %
01.10.2019 18:00 16,8 C 16,0 C 18,3 C 90 % 1000,0 hPa 0,0 l/m 0,00 h 0,00 h 25 W/m 12,2 km/h (2 Bft) 96,35 %
01.10.2019 19:00 16,5 C 15,1 C 18,3 C 92 % 999,9 hPa 0,0 l/m 0,00 h 0,00 h 9 W/m 10,8 km/h (2 Bft) 96,94 %
01.10.2019 20:00 15,8 C 14,8 C 18,3 C 94 % 1000,0 hPa 0,0 l/m 0,00 h 0,00 h 0 W/m 8,9 km/h (2 Bft) 98,57 %
01.10.2019 21:00 15,7 C 14,3 C 18,3 C 95 % 999,8 hPa 0,0 l/m 0,00 h 0,23 h 0 W/m 10,4 km/h (2 Bft) 98,15 %
01.10.2019 22:00 15,4 C 14,3 C 18,3 C 96 % 999,8 hPa 1,8 l/m 0,00 h 0,27 h 0 W/m 10,1 km/h (2 Bft) 96,22 %
01.10.2019 23:00 15,4 C 13,9 C 18,3 C 97 % 999,8 hPa 0,6 l/m 0,00 h 0,23 h 0 W/m 9,9 km/h (2 Bft) 97,79 %
02.10.2019 00:00 15,0 C 13,7 C 18,3 C 98 % 999,9 hPa 2,4 l/m 0,00 h 0,90 h 0 W/m 11,3 km/h (2 Bft) 99,04 %
02.10.2019 01:00 14,5 C 13,3 C 18,3 C 98 % 1000,1 hPa 0,2 l/m 0,00 h 0,00 h 0 W/m 8,2 km/h (2 Bft) 95,01 %
02.10.2019 02:00 13,3 C 11,7 C 18,3 C 98 % 1001,0 hPa 0,2 l/m 0,00 h 0,43 h 0 W/m 8,8 km/h (2 Bft) 97,72 %
02.10.2019 03:00 10,9 C 9,6 C 18,3 C 98 % 1002,4 hPa 0,0 l/m 0,00 h 0,00 h 0 W/m 8,9 km/h (2 Bft) 99,57 %
02.10.2019 04:00 10,0 C 8,8 C 18,3 C 98 % 1003,7 hPa 0,0 l/m 0,00 h 0,00 h 0 W/m 8,5 km/h (2 Bft) 95,94 %
02.10.2019 05:00 9,3 C 8,3 C 18,3 C 98 % 1004,9 hPa 0,0 l/m 0,00 h 0,00 h 0 W/m 8,0 km/h (2 Bft) 96,85 %
02.10.2019 06:00 9,1 C 8,2 C 18,3 C 98 % 1005,8 hPa 0,0 l/m 0,00 h 0,07 h 0 W/m 5,0 km/h (1 Bft) 99,15 %
02.10.2019 07:00 9,2 C 8,3 C 18,3 C 99 % 1006,9 hPa 0,0 l/m 0,00 h 0,00 h 8 W/m 4,4 km/h (1 Bft) 94,87 %
02.10.2019 08:00 9,3 C 8,8 C 18,3 C 99 % 1008,2 hPa 0,0 l/m 0,00 h 0,00 h 35 W/m 1,6 km/h (1 Bft) 97,65 %
02.10.2019 09:00 9,5 C 10,3 C 18,3 C 99 % 1009,3 hPa 0,0 l/m 0,30 h 0,00 h 141 W/m 6,2 km/h (2 Bft) 97,65 %
02.10.2019 10:00 11,1 C 15,0 C 18,3 C 98 % 1010,3 hPa 0,0 l/m 0,77 h 0,00 h 335 W/m 9,3 km/h (2 Bft) 96,22 %
02.10.2019 11:00 13,0 C 19,5 C 18,3 C 86 % 1011,0 hPa 0,0 l/m 1,00 h 0,00 h 557 W/m 11,5 km/h (2 Bft) 98,00 %
02.10.2019 12:00 14,1 C 18,0 C 18,3 C 74 % 1011,7 hPa 0,0 l/m 0,73 h 0,00 h 444 W/m 12,7 km/h (3 Bft) 98,68 %
02.10.2019 13:00 14,3 C 17,0 C 18,3 C 74 % 1012,1 hPa 0,0 l/m 0,43 h 0,03 h 361 W/m 9,3 km/h (2 Bft) 97,72 %
02.10.2019 14:00 14,1 C 14,7 C 18,3 C 71 % 1012,5 hPa 0,0 l/m 0,20 h 0,27 h 193 W/m 13,2 km/h (3 Bft) 97,93 %
02.10.2019 15:00 12,0 C 12,8 C 18,3 C 81 % 1013,2 hPa 0,0 l/m 0,20 h 0,03 h 204 W/m 9,9 km/h (2 Bft) 98,22 %
02.10.2019 16:00 13,0 C 14,4 C 18,3 C 76 % 1013,7 hPa 0,2 l/m 0,70 h 0,27 h 280 W/m 12,2 km/h (2 Bft) 95,51 %
02.10.2019 17:00 12,1 C 12,7 C 18,3 C 83 % 1014,2 hPa 0,0 l/m 0,37 h 0,00 h 139 W/m 5,7 km/h (1 Bft) 98,72 %
02.10.2019 18:00 11,4 C 10,3 C 18,3 C 86 % 1014,9 hPa 0,0 l/m 0,07 h 0,13 h 25 W/m 5,7 km/h (1 Bft) 98,67 %
02.10.2019 19:00 10,2 C 8,6 C 18,3 C 88 % 1015,4 hPa 0,0 l/m 0,00 h 0,00 h 7 W/m 3,5 km/h (1 Bft) 95,02 %
02.10.2019 20:00 9,1 C 8,1 C 18,3 C 89 % 1016,0 hPa 0,0 l/m 0,00 h 0,00 h 0 W/m 4,4 km/h (1 Bft) 98,29 %
02.10.2019 21:00 8,9 C 7,9 C 18,3 C 91 % 1016,6 hPa 0,0 l/m 0,00 h 0,00 h 0 W/m 6,9 km/h (2 Bft) 98,08 %
02.10.2019 22:00 8,8 C 7,9 C 17,4 C 92 % 1017,3 hPa 0,0 l/m 0,00 h 0,00 h 0 W/m 6,8 km/h (2 Bft) 98,57 %
02.10.2019 23:00 8,9 C 8,2 C 10,0 C 94 % 1017,9 hPa 0,0 l/m 0,00 h 0,00 h 0 W/m 7,0 km/h (2 Bft) 94,37 %
03.10.2019 00:00 8,8 C 8,0 C 10,0 C 94 % 1018,4 hPa 0,0 l/m 0,00 h 0,00 h 0 W/m 7,1 km/h (2 Bft) 98,47 %
03.10.2019 01:00 8,8 C 7,9 C 10,0 C 95 % 1018,4 hPa 0,0 l/m 0,00 h 0,00 h 0 W/m 6,7 km/h (2 Bft) 98,36 %
03.10.2019 02:00 8,5 C 7,6 C 10,0 C 96 % 1018,2 hPa 0,0 l/m 0,00 h 0,00 h 0 W/m 5,2 km/h (1 Bft) 97,01 %
03.10.2019 03:00 8,3 C 7,3 C 10,0 C 96 % 1018,2 hPa 0,0 l/m 0,00 h 0,00 h 0 W/m 6,4 km/h (2 Bft) 97,22 %
03.10.2019 04:00 8,2 C 7,2 C 10,0 C 97 % 1018,0 hPa 0,0 l/m 0,00 h 0,00 h 0 W/m 4,9 km/h (1 Bft) 95,97 %
03.10.2019 05:00 7,7 C 6,7 C 10,0 C 97 % 1018,0 hPa 0,0 l/m 0,00 h 0,00 h 0 W/m 3,7 km/h (1 Bft) 97,58 %
03.10.2019 06:00 7,7 C 7,2 C 10,0 C 97 % 1018,2 hPa 0,0 l/m 0,00 h 0,00 h 0 W/m 3,0 km/h (1 Bft) 98,67 %
03.10.2019 07:00 7,8 C 7,2 C 10,0 C 98 % 1018,4 hPa 0,0 l/m 0,00 h 0,00 h 8 W/m 4,7 km/h (1 Bft) 95,02 %
03.10.2019 08:00 8,1 C 8,0 C 7,9 C 98 % 1018,7 hPa 0,0 l/m 0,00 h 0,00 h 40 W/m 6,4 km/h (2 Bft) 98,86 %
03.10.2019 09:00 9,1 C 10,1 C 6,1 C 98 % 1018,8 hPa 0,0 l/m 0,27 h 0,00 h 115 W/m 8,7 km/h (2 Bft) 98,93 %
03.10.2019 10:00 10,7 C 13,8 C 6,1 C 97 % 1018,9 hPa 0,0 l/m 0,63 h 0,00 h 284 W/m 11,2 km/h (2 Bft) 95,78 %
03.10.2019 11:00 12,1 C 13,6 C 6,1 C 92 % 1019,0 hPa 0,0 l/m 0,33 h 0,00 h 243 W/m 11,8 km/h (2 Bft) 97,27 %
03.10.2019 12:00 12,8 C 13,9 C 6,1 C 90 % 1018,8 hPa 0,0 l/m 0,17 h 0,00 h 215 W/m 9,1 km/h (2 Bft) 97,16 %
03.10.2019 13:00 13,2 C 12,7 C 5,8 C 89 % 1018,4 hPa 0,2 l/m 0,00 h 0,17 h 145 W/m 8,9 km/h (2 Bft) 98,82 %
03.10.2019 14:00 13,4 C 14,9 C 3,4 C 88 % 1018,0 hPa 0,0 l/m 0,42 h 0,00 h 296 W/m 10,5 km/h (2 Bft) 98,55 %
03.10.2019 15:00 14,6 C 16,0 C 16,1 C 81 % 1017,4 hPa 0,0 l/m 0,28 h 0,00 h 257 W/m 14,1 km/h (3 Bft) 95,42 %
03.10.2019 16:00 14,1 C 13,8 C 6,0 C 82 % 1017,3 hPa 0,0 l/m 0,08 h 0,00 h 130 W/m 12,9 km/h (3 Bft) 96,97 %
03.10.2019 17:00 13,1 C 12,2 C 3,6 C 85 % 1017,3 hPa 0,0 l/m 0,00 h 0,00 h 54 W/m 9,6 km/h (2 Bft) 99,51 %
03.10.2019 18:00 12,5 C 11,6 C 0,0 C 88 % 1017,4 hPa 0,0 l/m 0,00 h 0,00 h 20 W/m 7,9 km/h (2 Bft) 96,23 %
03.10.2019 19:00 12,0 C 10,9 C 0,0 C 89 % 1017,4 hPa 0,0 l/m 0,00 h 0,00 h 0 W/m 0,7 km/h (0 Bft) 96,04 %
03.10.2019 20:00 11,7 C 10,6 C 0,0 C 89 % 1017,1 hPa 0,0 l/m 0,00 h 0,00 h 0 W/m 1,9 km/h (1 Bft) 99,13 %
03.10.2019 21:00 11,3 C 10,2 C 0,0 C 90 % 1016,7 hPa 0,0 l/m 0,00 h 0,00 h 0 W/m 0,9 km/h (0 Bft) 97,90 %
03.10.2019 22:00 11,1 C 10,5 C 0,0 C 91 % 1016,0 hPa 0,0 l/m 0,00 h 0,00 h 0 W/m 2,7 km/h (1 Bft) 95,24 %
03.10.2019 23:00 11,0 C 9,7 C 0,0 C 91 % 1015,4 hPa 0,0 l/m 0,00 h 0,00 h 0 W/m 3,9 km/h (1 Bft) 97,94 %
04.10.2019 00:00 10,6 C 9,9 C 0,0 C 92 % 1014,7 hPa 0,0 l/m 0,00 h 0,00 h 0 W/m 5,7 km/h (1 Bft) 97,58 %
04.10.2019 01:00 10,4 C 9,5 C 0,0 C 92 % 1014,0 hPa 0,0 l/m 0,00 h 0,00 h 0 W/m 4,1 km/h (1 Bft) 95,74 %
04.10.2019 02:00 10,2 C 9,4 C 0,0 C 92 % 1013,2 hPa 0,0 l/m 0,00 h 0,00 h 0 W/m 4,9 km/h (1 Bft) 97,72 %
04.10.2019 03:00 9,9 C 8,9 C 0,0 C 93 % 1011,9 hPa 0,0 l/m 0,00 h 0,00 h 0 W/m 5,9 km/h (2 Bft) 97,51 %
04.10.2019 04:00 9,5 C 8,9 C 0,0 C 93 % 1010,9 hPa 0,0 l/m 0,00 h 0,00 h 0 W/m 9,5 km/h (2 Bft) 98,72 %
04.10.2019 05:00 9,5 C 8,9 C 0,0 C 91 % 1010,0 hPa 0,0 l/m 0,00 h 0,00 h 0 W/m 13,8 km/h (3 Bft) 97,20 %
04.10.2019 06:00 9,6 C 8,8 C 0,0 C 90 % 1009,0 hPa 0,0 l/m 0,00 h 0,10 h 0 W/m 16,8 km/h (3 Bft) 96,43 %
04.10.2019 07:00 9,7 C 9,0 C 0,8 C 89 % 1007,9 hPa 0,0 l/m 0,00 h 0,07 h 6 W/m 17,6 km/h (3 Bft) 98,64 %
04.10.2019 08:00 9,8 C 9,0 C 0,0 C 88 % 1006,7 hPa 0,0 l/m 0,00 h 0,23 h 27 W/m 20,6 km/h (4 Bft) 97,79 %
04.10.2019 09:00 10,0 C 8,9 C 0,0 C 89 % 1005,5 hPa 1,4 l/m 0,00 h 0,33 h 40 W/m 21,2 km/h (4 Bft) 94,94 %
04.10.2019 10:00 9,5 C 8,1 C 0,0 C 94 % 1004,9 hPa 3,2 l/m 0,00 h 1,00 h 34 W/m 21,7 km/h (4 Bft) 99,50 %
04.10.2019 11:00 9,3 C 8,3 C 0,0 C 97 % 1004,2 hPa 1,6 l/m 0,00 h 0,50 h 43 W/m 23,2 km/h (4 Bft) 96,86 %
04.10.2019 12:00 9,5 C 8,7 C 0,0 C 98 % 1003,8 hPa 0,2 l/m 0,00 h 0,23 h 31 W/m 16,0 km/h (3 Bft) 97,31 %
04.10.2019 13:00 10,8 C 11,1 C 0,0 C 99 % 1003,4 hPa 0,0 l/m 0,00 h 0,00 h 128 W/m 12,2 km/h (2 Bft) 97,02 %
04.10.2019 14:00 13,0 C 12,9 C 0,0 C 99 % 1003,1 hPa 0,0 l/m 0,03 h 0,00 h 150 W/m 14,4 km/h (3 Bft) 95,86 %
04.10.2019 15:00 13,2 C 12,9 C 0,0 C 98 % 1003,1 hPa 0,0 l/m 0,00 h 0,23 h 93 W/m 15,2 km/h (3 Bft) 97,65 %
04.10.2019 16:00 13,4 C 13,3 C 0,0 C 97 % 1003,1 hPa 0,0 l/m 0,00 h 0,00 h 100 W/m 15,5 km/h (3 Bft) 96,13 %
04.10.2019 17:00 13,5 C 12,9 C 0,5 C 95 % 1003,3 hPa 0,4 l/m 0,00 h 0,00 h 48 W/m 15,5 km/h (3 Bft) 95,37 %
04.10.2019 18:00 13,4 C 12,8 C 0,0 C 94 % 1003,7 hPa 0,0 l/m 0,13 h 0,00 h 30 W/m 15,1 km/h (3 Bft) 96,82 %
04.10.2019 19:00 13,0 C 12,1 C 0,0 C 93 % 1004,2 hPa 0,0 l/m 0,00 h 0,00 h 5 W/m 14,8 km/h (3 Bft) 97,12 %
04.10.2019 20:00 12,6 C 11,9 C 0,0 C 95 % 1004,6 hPa 0,0 l/m 0,00 h 0,00 h 0 W/m 16,7 km/h (3 Bft) 98,51 %
04.10.2019 21:00 12,6 C 11,7 C 0,0 C 95 % 1005,1 hPa 0,0 l/m 0,00 h 0,03 h 0 W/m 15,6 km/h (3 Bft) 97,02 %
04.10.2019 22:00 12,5 C 11,2 C 0,0 C 96 % 1005,7 hPa 1,8 l/m 0,00 h 0,90 h 0 W/m 12,0 km/h (2 Bft) 97,44 %
04.10.2019 23:00 11,8 C 10,3 C 0,0 C 97 % 1006,7 hPa 0,2 l/m 0,00 h 0,40 h 0 W/m 8,4 km/h (2 Bft) 98,57 %
05.10.2019 00:00 10,4 C 9,1 C 0,0 C 98 % 1007,5 hPa 0,0 l/m 0,00 h 0,07 h 0 W/m 7,5 km/h (2 Bft) 97,04 %
05.10.2019 01:00 9,9 C 8,9 C 0,0 C 98 % 1008,3 hPa 0,2 l/m 0,00 h 0,37 h 0 W/m 3,8 km/h (1 Bft) 97,51 %
05.10.2019 02:00 9,7 C 8,6 C 0,0 C 99 % 1009,2 hPa 0,0 l/m 0,00 h 0,00 h 0 W/m 2,5 km/h (1 Bft) 98,29 %
05.10.2019 03:00 9,5 C 8,3 C 0,0 C 99 % 1009,8 hPa 0,0 l/m 0,00 h 0,00 h 0 W/m 2,8 km/h (1 Bft) 96,87 %
05.10.2019 04:00 9,4 C 8,3 C 0,0 C 99 % 1010,5 hPa 0,0 l/m 0,00 h 0,00 h 0 W/m 1,5 km/h (1 Bft) 98,65 %
05.10.2019 05:00 9,1 C 8,0 C 0,0 C 99 % 1011,4 hPa 0,0 l/m 0,00 h 0,00 h 0 W/m 0,5 km/h (0 Bft) 95,44 %
05.10.2019 06:00 8,5 C 6,9 C 0,0 C 99 % 1012,1 hPa 0,0 l/m 0,00 h 0,00 h 0 W/m 1,2 km/h (1 Bft) 98,68 %
05.10.2019 07:00 7,8 C 6,8 C 0,0 C 99 % 1012,9 hPa 0,0 l/m 0,00 h 0,00 h 6 W/m 0,5 km/h (0 Bft) 97,08 %
05.10.2019 08:00 7,9 C 7,2 C 0,0 C 99 % 1014,0 hPa 0,0 l/m 0,00 h 0,00 h 15 W/m 1,1 km/h (0 Bft) 94,84 %
05.10.2019 09:00 8,1 C 7,7 C 0,0 C 99 % 1014,8 hPa 0,0 l/m 0,00 h 0,00 h 34 W/m 2,1 km/h (1 Bft) 99,50 %
05.10.2019 10:00 8,7 C 11,9 C 0,0 C 99 % 1015,9 hPa 0,0 l/m 0,40 h 0,00 h 236 W/m 3,9 km/h (1 Bft) 97,58 %
05.10.2019 11:00 10,9 C 14,7 C 0,0 C 93 % 1016,5 hPa 0,0 l/m 0,40 h 0,00 h 286 W/m 4,4 km/h (1 Bft) 95,54 %
05.10.2019 12:00 11,7 C 13,8 C 0,0 C 86 % 1016,8 hPa 0,0 l/m 0,53 h 0,00 h 268 W/m 4,7 km/h (1 Bft) 99,05 %
05.10.2019 13:00 12,4 C 13,5 C 0,0 C 82 % 1017,0 hPa 0,0 l/m 0,20 h 0,00 h 230 W/m 5,9 km/h (2 Bft) 97,03 %
05.10.2019 14:00 12,7 C 15,2 C 0,0 C 80 % 1017,4 hPa 0,0 l/m 0,53 h 0,00 h 294 W/m 6,4 km/h (2 Bft) 97,86 %
05.10.2019 15:00 13,8 C 15,7 C 0,0 C 76 % 1017,7 hPa 0,0 l/m 0,60 h 0,00 h 269 W/m 8,0 km/h (2 Bft) 95,87 %
05.10.2019 16:00 14,2 C 15,9 C 0,0 C 74 % 1017,8 hPa 0,0 l/m 0,53 h 0,00 h 245 W/m 7,1 km/h (2 Bft) 98,22 %
05.10.2019 17:00 13,7 C 12,9 C 0,0 C 74 % 1017,9 hPa 0,0 l/m 0,13 h 0,00 h 99 W/m 6,4 km/h (2 Bft) 98,22 %
05.10.2019 18:00 12,5 C 10,8 C 0,0 C 78 % 1018,3 hPa 0,0 l/m 0,17 h 0,00 h 31 W/m 1,3 km/h (1 Bft) 96,17 %
05.10.2019 19:00 11,1 C 8,5 C 0,0 C 81 % 1018,7 hPa 0,0 l/m 0,00 h 0,00 h 4 W/m 0,0 km/h (0 Bft) 98,41 %
05.10.2019 20:00 9,7 C 7,6 C 0,0 C 85 % 1019,0 hPa 0,0 l/m 0,00 h 0,00 h 0 W/m 0,0 km/h (0 Bft) 96,42 %
05.10.2019 21:00 8,9 C 7,2 C 0,0 C 88 % 1019,2 hPa 0,0 l/m 0,00 h 0,00 h 0 W/m 0,0 km/h (0 Bft) 98,71 %
05.10.2019 22:00 8,4 C 7,5 C 0,0 C 91 % 1019,4 hPa 0,0 l/m 0,00 h 0,00 h 0 W/m 0,0 km/h (0 Bft) 97,36 %
05.10.2019 23:00 8,5 C 8,2 C 0,0 C 92 % 1019,3 hPa 0,0 l/m 0,00 h 0,00 h 0 W/m 0,3 km/h (0 Bft) 96,93 %
06.10.2019 00:00 8,7 C 8,3 C 0,0 C 91 % 1018,8 hPa 0,0 l/m 0,00 h 0,00 h 0 W/m 2,0 km/h (1 Bft) 97,65 %
06.10.2019 01:00 9,1 C 8,4 C 0,0 C 89 % 1018,3 hPa 0,0 l/m 0,00 h 0,00 h 0 W/m 7,8 km/h (2 Bft) 99,29 %
06.10.2019 02:00 9,3 C 8,4 C 0,0 C 87 % 1018,1 hPa 0,0 l/m 0,00 h 0,00 h 0 W/m 10,6 km/h (2 Bft) 95,38 %
06.10.2019 03:00 9,1 C 8,3 C 0,0 C 88 % 1017,8 hPa 0,0 l/m 0,00 h 0,00 h 0 W/m 9,6 km/h (2 Bft) 97,65 %
06.10.2019 04:00 9,1 C 8,4 C 0,0 C 88 % 1017,2 hPa 0,0 l/m 0,00 h 0,00 h 0 W/m 15,2 km/h (3 Bft) 98,65 %
06.10.2019 05:00 9,3 C 8,4 C 0,0 C 86 % 1016,5 hPa 0,0 l/m 0,00 h 0,00 h 0 W/m 19,0 km/h (3 Bft) 96,58 %
06.10.2019 06:00 9,3 C 8,3 C 0,0 C 86 % 1015,7 hPa 0,0 l/m 0,00 h 0,00 h 0 W/m 20,2 km/h (4 Bft) 97,27 %
06.10.2019 07:00 9,3 C 8,7 C 0,0 C 85 % 1015,2 hPa 0,0 l/m 0,00 h 0,00 h 0 W/m 21,7 km/h (4 Bft) 98,29 %
06.10.2019 08:00 9,5 C 8,9 C 0,0 C 84 % 1014,9 hPa 0,0 l/m 0,00 h 0,03 h 8 W/m 19,6 km/h (3 Bft) 97,37 %
06.10.2019 09:00 9,3 C 7,0 C 0,0 C 87 % 1014,8 hPa 1,6 l/m 0,00 h 1,00 h 25 W/m 18,3 km/h (3 Bft) 96,58 %
06.10.2019 10:00 8,6 C 7,0 C 0,0 C 92 % 1014,5 hPa 2,4 l/m 0,00 h 1,00 h 46 W/m 16,4 km/h (3 Bft) 96,54 %
06.10.2019 11:00 8,3 C 7,2 C 0,0 C 95 % 1013,9 hPa 2,0 l/m 0,00 h 1,00 h 60 W/m 24,9 km/h (4 Bft) 97,82 %
06.10.2019 12:00 8,5 C 7,4 C 0,0 C 97 % 1013,2 hPa 0,4 l/m 0,00 h 0,53 h 80 W/m 24,4 km/h (4 Bft) 98,23 %
06.10.2019 13:00 8,8 C 7,8 C 0,0 C 98 % 1012,5 hPa 0,8 l/m 0,00 h 0,43 h 71 W/m 26,1 km/h (4 Bft) 94,10 %
06.10.2019 14:00 8,8 C 7,8 C 0,0 C 98 % 1011,6 hPa 1,6 l/m 0,00 h 1,00 h 80 W/m 28,1 km/h (4 Bft) 99,24 %
06.10.2019 15:00 8,9 C 7,8 C 0,0 C 98 % 1010,8 hPa 2,8 l/m 0,00 h 1,00 h 38 W/m 26,8 km/h (4 Bft) 97,50 %
06.10.2019 16:00 8,8 C 7,8 C 0,0 C 99 % 1009,8 hPa 3,8 l/m 0,00 h 1,00 h 21 W/m 23,3 km/h (4 Bft) 95,78 %
06.10.2019 17:00 8,8 C 7,8 C 0,0 C 99 % 1009,6 hPa 1,2 l/m 0,00 h 0,70 h 12 W/m 25,3 km/h (4 Bft) 99,43 %
06.10.2019 18:00 8,9 C 7,8 C 0,0 C 99 % 1009,6 hPa 1,2 l/m 0,00 h 0,20 h 8 W/m 18,7 km/h (3 Bft) 97,83 %
06.10.2019 19:00 8,9 C 7,8 C 0,0 C 99 % 1010,3 hPa 1,8 l/m 0,00 h 0,90 h 0 W/m 6,5 km/h (2 Bft) 96,29 %
06.10.2019 20:00 8,8 C 7,8 C 0,0 C 99 % 1010,6 hPa 0,8 l/m 0,00 h 0,93 h 0 W/m 17,8 km/h (3 Bft) 97,91 %
06.10.2019 21:00 8,7 C 7,8 C 0,0 C 99 % 1010,9 hPa 0,0 l/m 0,00 h 0,00 h 0 W/m 11,3 km/h (2 Bft) 98,14 %
06.10.2019 22:00 8,7 C 7,8 C 0,0 C 99 % 1011,6 hPa 0,0 l/m 0,00 h 0,00 h 0 W/m 5,1 km/h (1 Bft) 96,87 %
06.10.2019 23:00 8,5 C 7,8 C 0,0 C 99 % 1012,5 hPa 0,0 l/m 0,00 h 0,00 h 0 W/m 3,6 km/h (1 Bft) 96,65 %
Min-Datum _ 03.10.19 05.10.19 03.10.19 02.10.19 30.09.19 - - - - 30.09.19 04.10.19
_ Min-Zeit 05:36 06:42 14:30 14:12 00:00 - - - - 19:04 17:57
Minimum _ 7,6 C 6,1 C 0,0 C 67 % 996,8 hPa - - - - 0,0 km/h (0 Bft) 52,63 %
Max-Datum _ 30.09.19 30.09.19 04.10.19 04.10.19 05.10.19 01.10.19 03.10.19 30.09.19 02.10.19 06.10.19 30.09.19
_ Max-Zeit 15:42 13:10 07:25 13:42 21:52 09:28 14:46 06:08 13:14 11:54 00:00
Maximum _ 18,3 C 22,8 C 20,6 C 100 % 1019,5 hPa 5,8 l/m 0,08 h 0,07 h 804 W/m 48,3 km/h
O-SO (6 Bft)
100,00 %
Durchschnitt _ 11,8 C 11,3 C 8,7 C 92 % 1010,6 hPa #48,8 l/m #14:23 h #26:00 h 125 W/m 11,4 km/h (2 Bft) 97,38 %
© 2019 W. Hausmann